createdAt,value
2022-08-04T06:00:31.741Z,4.90
2022-08-04T06:02:37.490Z,8.10
2022-08-04T06:04:41.273Z,5.17
2022-08-04T06:06:45.528Z,6.10
2022-08-04T06:08:47.680Z,3.33
2022-08-04T06:10:51.438Z,5.00
2022-08-04T06:12:56.948Z,3.50
2022-08-04T06:15:01.199Z,4.13
2022-08-04T06:18:33.398Z,6.83
2022-08-04T06:20:02.378Z,4.07
2022-08-04T06:21:57.941Z,4.43
2022-08-04T06:24:04.467Z,5.33
2022-08-04T06:26:09.393Z,4.73
2022-08-04T06:28:13.798Z,9.83
2022-08-04T06:30:19.170Z,3.43
2022-08-04T06:32:33.682Z,6.93
2022-08-04T06:34:38.809Z,4.63
2022-08-04T06:36:42.741Z,4.20
2022-08-04T06:38:45.180Z,8.00
2022-08-04T06:40:47.455Z,3.27
2022-08-04T06:42:50.377Z,6.90
2022-08-04T06:44:56.607Z,4.00
2022-08-04T06:46:58.872Z,4.23
2022-08-04T06:49:01.488Z,3.67
2022-08-04T06:51:24.862Z,4.13
2022-08-04T06:53:27.055Z,4.83
2022-08-04T06:55:29.352Z,4.93
2022-08-04T06:57:32.693Z,8.10
2022-08-04T06:59:34.975Z,7.97
2022-08-04T07:01:37.668Z,3.87
2022-08-04T07:03:39.532Z,5.77
2022-08-04T07:05:41.630Z,5.63
2022-08-04T07:07:57.457Z,8.88
2022-08-04T07:10:02.155Z,9.82
2022-08-04T07:12:04.832Z,4.40
2022-08-04T07:14:07.273Z,5.63
2022-08-04T07:16:13.195Z,4.28
2022-08-04T07:18:15.002Z,4.75
2022-08-04T07:20:16.789Z,3.25
2022-08-04T07:22:37.464Z,4.00
2022-08-04T07:24:41.066Z,3.25
2022-08-04T07:26:43.886Z,3.63
2022-08-04T07:28:46.396Z,3.90
2022-08-04T07:30:49.866Z,3.53
2022-08-04T07:32:52.564Z,3.33
2022-08-04T07:34:55.071Z,5.13
2022-08-04T07:36:59.758Z,3.35
2022-08-04T07:39:01.829Z,4.07
2022-08-04T07:41:35.352Z,3.75
2022-08-04T07:43:27.611Z,3.47
2022-08-04T07:45:29.387Z,3.80
2022-08-04T07:47:31.179Z,5.75
2022-08-04T07:49:52.150Z,2.90
2022-08-04T07:51:55.347Z,3.95
2022-08-04T07:53:58.646Z,4.57
2022-08-04T07:56:01.692Z,3.63
2022-08-04T07:58:03.532Z,3.30
2022-08-04T08:00:06.834Z,4.00
2022-08-04T08:02:08.797Z,5.78
2022-08-04T08:04:12.692Z,7.88
2022-08-04T08:06:17.467Z,3.83
2022-08-04T08:08:39.353Z,5.38
2022-08-04T08:10:46.708Z,5.57
2022-08-04T08:12:50.811Z,3.03
2022-08-04T08:14:54.303Z,3.70
2022-08-04T08:16:56.272Z,3.53
2022-08-04T08:18:57.945Z,3.65
2022-08-04T08:20:59.884Z,3.75
2022-08-04T08:23:02.882Z,6.72
2022-08-04T08:25:08.726Z,3.17
2022-08-04T08:27:10.429Z,6.82
2022-08-04T08:29:12.701Z,3.30
2022-08-04T08:31:14.415Z,5.32
2022-08-04T08:33:16.841Z,4.30
2022-08-04T08:35:19.233Z,6.88
2022-08-04T08:37:35.346Z,2.92
2022-08-04T08:39:54.333Z,4.95
2022-08-04T08:42:26.798Z,3.60
2022-08-04T08:44:54.824Z,10.80
2022-08-04T08:47:11.778Z,4.28
2022-08-04T08:50:01.611Z,4.15
2022-08-04T08:52:56.387Z,3.00
2022-08-04T08:55:12.680Z,3.47
2022-08-04T08:57:32.914Z,4.72
2022-08-04T09:00:19.604Z,5.43
2022-08-04T09:02:33.744Z,3.63
2022-08-04T09:04:43.285Z,2.80
2022-08-04T09:06:47.804Z,4.18
2022-08-04T09:09:09.787Z,4.05
2022-08-04T09:11:26.050Z,3.35
2022-08-04T09:13:36.849Z,4.55
2022-08-04T09:15:57.396Z,3.53
2022-08-04T09:18:04.919Z,3.67
2022-08-04T09:20:27.438Z,8.40
2022-08-04T09:22:33.665Z,3.20
2022-08-04T09:24:38.157Z,3.15
2022-08-04T09:26:59.744Z,4.07
2022-08-04T09:29:19.686Z,4.07
2022-08-04T09:31:52.959Z,2.75
2022-08-04T09:34:12.714Z,6.07
2022-08-04T09:36:26.671Z,5.72
2022-08-04T09:38:37.385Z,5.00
2022-08-04T09:41:49.268Z,5.63
2022-08-04T09:44:52.373Z,2.83
2022-08-04T09:47:25.540Z,4.20
2022-08-04T09:49:56.024Z,3.53
2022-08-04T09:51:59.637Z,9.70
2022-08-04T09:54:31.036Z,3.45
2022-08-04T09:56:42.917Z,3.00
2022-08-04T09:59:03.448Z,6.57
2022-08-04T10:01:11.568Z,4.30
2022-08-04T10:03:19.709Z,3.83
2022-08-04T10:05:26.533Z,3.38
2022-08-04T10:08:15.066Z,3.83
2022-08-04T10:10:42.886Z,2.95
2022-08-04T10:13:09.647Z,4.78
2022-08-04T10:15:19.424Z,4.13
2022-08-04T10:17:34.133Z,4.05
2022-08-04T10:19:40.359Z,3.45
2022-08-04T10:22:28.377Z,3.35
2022-08-04T10:24:53.102Z,3.10
2022-08-04T10:27:09.658Z,6.13
2022-08-04T10:29:38.432Z,3.47
2022-08-04T10:31:46.399Z,4.53
2022-08-04T10:34:12.402Z,5.18
2022-08-04T10:36:21.153Z,4.35
2022-08-04T10:38:27.149Z,4.55
2022-08-04T10:40:45.506Z,4.72
2022-08-04T10:43:00.409Z,2.70
2022-08-04T10:45:19.446Z,3.17
2022-08-04T10:47:26.747Z,3.38
2022-08-04T10:49:40.579Z,2.97
2022-08-04T10:52:03.619Z,3.42
2022-08-04T10:54:17.224Z,3.05
2022-08-04T10:56:41.775Z,2.80
2022-08-04T10:58:49.580Z,4.18
2022-08-04T11:00:57.390Z,3.30
2022-08-04T11:03:22.068Z,3.35
2022-08-04T11:05:32.519Z,3.42
2022-08-04T11:07:37.699Z,2.97
2022-08-04T11:09:42.724Z,4.45
2022-08-04T11:12:01.622Z,2.92
2022-08-04T11:14:09.054Z,3.00
2022-08-04T11:16:26.963Z,3.35
2022-08-04T11:18:47.809Z,3.90
2022-08-04T11:20:57.458Z,4.15
2022-08-04T11:23:15.271Z,2.97
2022-08-04T11:25:25.139Z,3.28
2022-08-04T11:27:48.838Z,3.35
2022-08-04T11:30:06.102Z,2.50
2022-08-04T11:32:17.205Z,3.10
2022-08-04T11:34:24.103Z,3.75
2022-08-04T11:36:46.549Z,5.40
2022-08-04T11:38:59.434Z,3.10
2022-08-04T11:41:10.820Z,2.70
2022-08-04T11:44:02.701Z,2.72
2022-08-04T11:46:03.455Z,3.42
2022-08-04T11:48:10.644Z,3.22
2022-08-04T11:50:20.294Z,3.58
2022-08-04T11:52:23.540Z,4.97
2022-08-04T11:54:25.265Z,6.00
2022-08-04T11:56:36.593Z,4.03
2022-08-04T11:58:39.593Z,2.65
2022-08-04T12:00:52.828Z,2.33
2022-08-04T12:03:03.077Z,3.60
2022-08-04T12:05:09.516Z,4.70
2022-08-04T12:07:41.635Z,3.38
2022-08-04T12:09:58.719Z,4.22
2022-08-04T12:12:05.918Z,2.45
2022-08-04T12:14:21.212Z,2.65
2022-08-04T12:16:30.454Z,2.83
2022-08-04T12:18:54.942Z,3.90
2022-08-04T12:21:09.833Z,2.45
2022-08-04T12:23:25.030Z,4.43
2022-08-04T12:25:32.969Z,3.90
2022-08-04T12:27:45.770Z,2.55
2022-08-04T12:30:54.167Z,4.30
2022-08-04T12:32:35.911Z,2.22
2022-08-04T12:35:08.535Z,4.22
2022-08-04T12:37:42.334Z,2.20
2022-08-04T12:40:27.394Z,2.63
2022-08-04T12:42:23.910Z,2.47
2022-08-04T12:44:38.024Z,2.70
2022-08-04T12:46:45.539Z,3.08
2022-08-04T12:48:49.343Z,3.58
2022-08-04T12:50:53.964Z,3.03
2022-08-04T12:53:04.522Z,3.90
2022-08-04T12:55:06.764Z,2.97
2022-08-04T12:57:10.293Z,3.95
2022-08-04T12:59:13.430Z,3.33
2022-08-04T13:02:08.319Z,2.75
2022-08-04T13:04:12.268Z,3.83
2022-08-04T13:06:21.069Z,3.70
2022-08-04T13:08:25.446Z,2.70
2022-08-04T13:10:29.983Z,3.55
2022-08-04T13:12:33.954Z,4.47
2022-08-04T13:14:37.742Z,3.33
2022-08-04T13:16:39.658Z,2.58
2022-08-04T13:18:49.550Z,2.33
2022-08-04T13:20:51.684Z,3.58
2022-08-04T13:22:59.829Z,4.95
2022-08-04T13:26:40.700Z,3.00
2022-08-04T13:27:24.834Z,3.08
2022-08-04T13:29:59.660Z,4.20
2022-08-04T13:32:05.295Z,2.33
2022-08-04T13:34:18.760Z,2.22
2022-08-04T13:36:26.026Z,2.83
2022-08-04T13:38:29.399Z,2.30
2022-08-04T13:40:31.893Z,3.03
2022-08-04T13:42:38.702Z,2.28
2022-08-04T13:44:45.596Z,5.05
2022-08-04T13:46:57.616Z,2.95
2022-08-04T13:51:57.599Z,3.20
2022-08-04T13:53:57.093Z,3.08
2022-08-04T13:56:01.300Z,3.22
2022-08-04T13:58:10.866Z,6.10
2022-08-04T14:00:13.673Z,4.68
2022-08-04T14:02:25.992Z,3.67
2022-08-04T14:04:29.062Z,4.07
2022-08-04T14:06:35.600Z,7.28
2022-08-04T14:08:47.903Z,4.50
2022-08-04T14:10:57.917Z,3.00
2022-08-04T14:13:00.255Z,3.15
2022-08-04T14:15:02.126Z,3.25
2022-08-04T14:17:19.738Z,3.03
2022-08-04T14:19:24.256Z,3.67
2022-08-04T14:21:28.968Z,3.15
2022-08-04T14:23:47.495Z,3.53
2022-08-04T14:25:49.976Z,9.07
2022-08-04T14:27:54.695Z,7.35
2022-08-04T14:29:56.694Z,3.72
2022-08-04T14:32:06.146Z,3.85
2022-08-04T14:34:29.942Z,3.45
2022-08-04T14:37:13.115Z,3.03
2022-08-04T14:39:07.219Z,6.68
2022-08-04T14:41:09.273Z,6.53
2022-08-04T14:43:11.016Z,3.10
2022-08-04T14:45:12.816Z,5.15
2022-08-04T14:47:14.763Z,4.97
2022-08-04T14:49:16.561Z,8.80
2022-08-04T14:51:18.506Z,4.15
2022-08-04T14:53:38.590Z,3.70
2022-08-04T14:55:44.623Z,2.97
2022-08-04T14:58:35.157Z,2.88
2022-08-04T15:00:11.911Z,5.00
2022-08-04T15:02:16.586Z,3.15
2022-08-04T15:04:19.581Z,4.15
2022-08-04T15:06:23.693Z,3.78
2022-08-04T15:08:30.871Z,2.80
2022-08-04T15:10:34.821Z,13.40
2022-08-04T15:12:36.843Z,4.22
2022-08-04T15:14:38.855Z,2.88
2022-08-04T15:16:54.438Z,3.53
2022-08-04T15:18:57.740Z,2.90
2022-08-04T15:21:03.624Z,3.72
2022-08-04T15:23:10.670Z,2.50
2022-08-04T15:25:15.521Z,5.40
2022-08-04T15:27:19.643Z,5.28
2022-08-04T15:30:00.605Z,6.28
2022-08-04T15:32:09.037Z,5.03
2022-08-04T15:34:12.134Z,7.45
2022-08-04T15:36:21.972Z,4.22
2022-08-04T15:38:35.570Z,8.38
2022-08-04T15:40:55.724Z,6.85
2022-08-04T15:43:12.646Z,3.88
2022-08-04T15:46:02.514Z,7.22
2022-08-04T15:48:05.797Z,3.45
2022-08-04T15:50:10.657Z,4.07
2022-08-04T15:52:18.260Z,3.55
2022-08-04T15:54:27.861Z,2.80
2022-08-04T15:56:36.984Z,4.57
2022-08-04T15:58:50.262Z,4.53
2022-08-04T16:00:54.048Z,5.50
2022-08-04T16:02:55.907Z,3.35
2022-08-04T16:05:18.164Z,8.80
2022-08-04T16:07:21.574Z,4.40
2022-08-04T16:09:46.387Z,3.45
2022-08-04T16:11:47.533Z,2.60
2022-08-04T16:14:04.227Z,3.30
2022-08-04T16:16:06.490Z,3.67
2022-08-04T16:18:14.537Z,2.83
2022-08-04T16:20:28.961Z,5.18
2022-08-04T16:22:39.709Z,3.38
2022-08-04T16:24:42.578Z,3.97
2022-08-04T16:26:46.150Z,4.30
2022-08-04T16:28:56.186Z,4.10
2022-08-04T16:31:07.497Z,4.22
2022-08-04T16:33:09.639Z,3.47
2022-08-04T16:35:28.571Z,3.22
2022-08-04T16:37:38.815Z,2.67
2022-08-04T16:39:49.546Z,3.17
2022-08-04T16:41:53.659Z,2.80
2022-08-04T16:44:52.580Z,3.60
2022-08-04T16:47:21.480Z,4.90
2022-08-04T16:49:16.731Z,6.90
2022-08-04T16:51:18.478Z,3.20
2022-08-04T16:53:53.391Z,4.43
2022-08-04T16:55:47.601Z,2.88
2022-08-04T16:57:50.593Z,8.40
2022-08-04T16:59:52.494Z,5.85
2022-08-04T17:01:55.201Z,5.40
2022-08-04T17:03:58.591Z,3.10
2022-08-04T17:06:07.626Z,7.00
2022-08-04T17:10:45.726Z,3.42
2022-08-04T17:12:47.716Z,6.85
2022-08-04T17:14:49.478Z,6.45
2022-08-04T17:16:53.525Z,3.03
2022-08-04T17:18:55.641Z,3.70
2022-08-04T17:21:02.117Z,9.10
2022-08-04T17:24:16.401Z,3.33
2022-08-04T17:26:01.894Z,5.70
2022-08-04T17:28:19.241Z,3.35
2022-08-04T17:30:27.277Z,3.70
2022-08-04T17:32:29.128Z,3.58
2022-08-04T17:34:30.945Z,3.55
2022-08-04T17:36:34.191Z,3.35
2022-08-04T17:38:43.682Z,3.60
2022-08-04T17:41:30.346Z,4.13
2022-08-04T17:44:04.589Z,5.60
2022-08-04T17:46:28.607Z,4.25
2022-08-04T17:49:21.052Z,5.47
2022-08-04T17:52:06.614Z,5.90
2022-08-04T17:54:02.748Z,6.63
2022-08-04T17:56:06.550Z,6.20
2022-08-04T17:58:20.913Z,4.85
2022-08-04T18:00:23.594Z,3.95
2022-08-04T18:02:35.317Z,3.92
2022-08-04T18:04:57.464Z,4.60
2022-08-04T18:08:35.335Z,5.03
2022-08-04T18:10:01.744Z,5.03
2022-08-04T18:11:59.242Z,6.75
2022-08-04T18:14:01.717Z,5.88
2022-08-04T18:16:05.485Z,7.35
2022-08-04T18:18:23.573Z,5.53
2022-08-04T18:20:27.821Z,8.32
2022-08-04T18:22:29.940Z,7.57
2022-08-04T18:24:56.489Z,7.72
2022-08-04T18:26:57.406Z,5.18
2022-08-04T18:28:59.316Z,6.95
2022-08-04T18:31:01.937Z,4.63
2022-08-04T18:33:37.691Z,5.50
2022-08-04T18:36:31.621Z,5.97
2022-08-04T18:38:06.353Z,3.65
2022-08-04T18:40:26.667Z,5.35
2022-08-04T18:42:37.544Z,6.00
2022-08-04T18:47:22.296Z,4.75
2022-08-04T18:50:32.705Z,6.20
2022-08-04T18:51:48.926Z,4.68
2022-08-04T18:53:55.342Z,5.82
2022-08-04T18:56:00.570Z,8.98
2022-08-04T18:58:07.216Z,8.38
2022-08-04T19:00:13.836Z,4.90
2022-08-04T19:02:17.460Z,4.18
2022-08-04T19:04:32.875Z,4.97
2022-08-04T19:06:39.218Z,8.25
2022-08-04T19:08:42.756Z,7.47
2022-08-04T19:10:47.122Z,5.97
2022-08-04T19:12:56.238Z,10.05
2022-08-04T19:15:07.905Z,5.60
2022-08-04T19:17:12.523Z,4.28
2022-08-04T19:19:15.570Z,11.75
2022-08-04T19:21:18.710Z,6.70
2022-08-04T19:24:30.337Z,9.45
2022-08-04T19:26:02.648Z,7.85
2022-08-04T19:28:05.103Z,4.90
2022-08-04T19:30:07.982Z,7.90
2022-08-04T19:32:16.339Z,5.70
2022-08-04T19:34:34.758Z,5.25
2022-08-04T19:36:36.938Z,5.05
2022-08-04T19:38:40.437Z,8.32
2022-08-04T19:40:43.782Z,6.82
2022-08-04T19:43:01.702Z,8.95
2022-08-04T19:45:15.517Z,8.43
2022-08-04T19:47:59.347Z,9.18
2022-08-04T19:50:02.780Z,34.03
2022-08-04T19:52:01.293Z,366.48
2022-08-04T19:54:16.640Z,374.23
2022-08-04T19:56:25.791Z,64.03
2022-08-04T19:58:27.653Z,50.80
2022-08-04T20:00:33.786Z,32.70
2022-08-04T20:02:36.258Z,52.95
2022-08-04T20:04:37.939Z,34.55
2022-08-04T20:06:39.816Z,9.45
2022-08-04T20:08:48.320Z,14.07
2022-08-04T20:10:51.384Z,13.55
2022-08-04T20:12:55.915Z,5.82
2022-08-04T20:14:57.730Z,5.72
2022-08-04T20:17:09.922Z,7.25
2022-08-04T20:19:14.224Z,5.97
2022-08-04T20:21:19.793Z,5.45
2022-08-04T20:23:47.718Z,5.57
2022-08-04T20:25:48.164Z,4.72
2022-08-04T20:27:59.475Z,6.03
2022-08-04T20:30:06.309Z,6.43
2022-08-04T20:32:22.815Z,6.40
2022-08-04T20:34:24.520Z,8.52
2022-08-04T20:36:26.707Z,13.57
2022-08-04T20:40:50.278Z,6.18
2022-08-04T20:42:52.037Z,7.50
2022-08-04T20:44:54.481Z,4.63
2022-08-04T20:46:56.217Z,4.65
2022-08-04T20:48:58.131Z,21.90
2022-08-04T20:51:00.547Z,6.05
2022-08-04T20:53:02.318Z,8.90
2022-08-04T20:55:05.838Z,8.75
2022-08-04T20:57:08.427Z,5.90
2022-08-04T20:59:10.967Z,5.43
2022-08-04T21:01:18.802Z,8.23
2022-08-04T21:03:20.722Z,5.10
2022-08-04T21:05:40.530Z,4.78
2022-08-04T21:07:43.856Z,10.25
2022-08-04T21:12:26.673Z,6.65
2022-08-04T21:14:30.557Z,8.02
2022-08-04T21:16:54.904Z,7.95
2022-08-04T21:18:54.091Z,8.73
2022-08-04T21:20:59.198Z,6.03
2022-08-04T21:23:04.957Z,8.50
2022-08-04T21:25:15.871Z,7.90
2022-08-04T21:27:18.333Z,6.25
2022-08-04T21:29:21.825Z,4.95
2022-08-04T21:31:24.559Z,9.77
2022-08-04T21:33:51.100Z,8.93
2022-08-04T21:35:54.121Z,4.57
2022-08-04T21:38:00.859Z,6.90
2022-08-04T21:40:14.471Z,9.02
2022-08-04T21:42:28.232Z,5.63
2022-08-04T21:44:32.103Z,7.55
2022-08-04T21:46:34.298Z,6.60
2022-08-04T21:48:44.225Z,6.97
2022-08-04T21:50:50.777Z,5.78
2022-08-04T21:52:52.513Z,9.10
2022-08-04T21:54:55.002Z,5.88
2022-08-04T21:56:56.790Z,5.90
2022-08-04T21:58:58.933Z,9.20
